CheckWX is a tool to help pilots better visualize weather data.  It is not intended as a substitute for an official pre-flight weather briefing.

06:14:10 UTC

KPNE TAF
Northeast Philadelphia Airport
Philadelphia, Pennsylvania, USA
KPNE 240530Z 2406/2506 VRB03KT P6SM BKN040 FM241500 08007KT P6SM BKN150 FM250100 07007KT P6SM BKN050 FM250400 07007KT P6SM BKN025

Jan-24@
06:00 UTC

Jan-24 @ 06:00 UTC

Jan-24@
15:00 UTC

Jan-24 @ 15:00 UTC

KPNE 240530Z 2406/2506 VRB03KT P6SM BKN040
Wind
  • Variable at 3 KTS
Cloud Levels
  • Broken at 4,000' AGL

Jan-24@
15:00 UTC

Jan-24 @ 15:00 UTC

Jan-25@
01:00 UTC

Jan-25 @ 01:00 UTC

FM241500 08007KT P6SM BKN150

From

From Standard forecast or significant change

Wind
  • 080° at 7 KTS
Cloud Levels
  • Broken at 15,000' AGL

Jan-25@
01:00 UTC

Jan-25 @ 01:00 UTC

Jan-25@
04:00 UTC

Jan-25 @ 04:00 UTC

FM250100 07007KT P6SM BKN050

From

From Standard forecast or significant change

Wind
  • 070° at 7 KTS
Cloud Levels
  • Broken at 5,000' AGL

Jan-25@
04:00 UTC

Jan-25 @ 04:00 UTC

Jan-25@
06:00 UTC

Jan-25 @ 06:00 UTC

FM250400 07007KT P6SM BKN025

From

From Standard forecast or significant change

Wind
  • 070° at 7 KTS
Cloud Levels
  • Broken at 2,500' AGL